createdAt,value
2022-09-20T00:02:23.745Z,8.40
2022-09-20T00:07:26.448Z,8.39
2022-09-20T00:12:29.243Z,8.36
2022-09-20T00:17:32.251Z,8.30
2022-09-20T00:22:34.947Z,8.23
2022-09-20T00:27:37.657Z,8.14
2022-09-20T00:32:41.297Z,8.07
2022-09-20T00:37:44.073Z,8.01
2022-09-20T00:42:48.299Z,7.97
2022-09-20T00:48:07.932Z,7.97
2022-09-20T00:53:31.680Z,8.02
2022-09-20T00:58:40.234Z,8.05
2022-09-20T01:03:43.555Z,8.04
2022-09-20T01:08:50.855Z,8.03
2022-09-20T01:13:53.534Z,8.00
2022-09-20T01:18:59.031Z,8.01
2022-09-20T01:24:07.503Z,8.02
2022-09-20T01:29:28.884Z,8.07
2022-09-20T01:34:36.440Z,8.10
2022-09-20T01:39:54.351Z,8.13
2022-09-20T01:45:09.963Z,8.14
2022-09-20T01:50:30.363Z,8.12
2022-09-20T01:56:06.850Z,8.12
2022-09-20T02:01:50.924Z,8.14
2022-09-20T02:07:25.588Z,8.15
2022-09-20T02:12:49.980Z,8.14
2022-09-20T02:18:14.183Z,8.16
2022-09-20T02:23:32.140Z,8.19
2022-09-20T02:28:49.469Z,8.21
2022-09-20T02:34:01.191Z,8.20
2022-09-20T02:39:21.501Z,8.23
2022-09-20T02:44:46.011Z,8.27
2022-09-20T02:50:00.200Z,8.22
2022-09-20T02:55:13.955Z,8.19
2022-09-20T03:00:27.198Z,8.21
2022-09-20T03:05:32.543Z,8.18
2022-09-20T03:11:03.305Z,8.14
2022-09-20T03:16:22.950Z,8.12
2022-09-20T03:21:37.829Z,8.11
2022-09-20T03:27:05.373Z,8.06
2022-09-20T03:32:50.883Z,8.04
2022-09-20T03:37:53.447Z,8.06
2022-09-20T03:43:18.184Z,8.04
2022-09-20T03:48:43.445Z,8.06
2022-09-20T03:54:01.418Z,8.05
2022-09-20T03:59:41.669Z,8.03
2022-09-20T04:04:55.922Z,8.01
2022-09-20T04:10:14.074Z,7.96
2022-09-20T04:15:26.070Z,7.89
2022-09-20T04:20:36.367Z,7.88
2022-09-20T04:25:44.609Z,7.86
2022-09-20T04:30:51.792Z,7.88
2022-09-20T04:36:31.581Z,7.93
2022-09-20T04:41:59.764Z,7.98
2022-09-20T04:47:15.468Z,7.99
2022-09-20T04:52:52.059Z,8.04
2022-09-20T04:58:25.993Z,8.08
2022-09-20T05:03:49.899Z,8.11
2022-09-20T05:09:30.476Z,8.12
2022-09-20T05:14:45.362Z,8.15
2022-09-20T05:19:58.713Z,8.16
2022-09-20T05:25:19.329Z,8.21
2022-09-20T05:30:28.460Z,8.33
2022-09-20T05:35:49.184Z,8.50
2022-09-20T05:41:07.845Z,8.61
2022-09-20T05:46:22.553Z,8.78
2022-09-20T05:52:02.337Z,8.82
2022-09-20T05:57:10.677Z,8.78
2022-09-20T06:02:22.663Z,8.84
2022-09-20T06:07:52.602Z,8.87
2022-09-20T06:13:20.730Z,8.94
2022-09-20T06:18:58.871Z,9.00
2022-09-20T06:24:03.332Z,9.07
2022-09-20T06:29:14.364Z,9.20
2022-09-20T06:34:19.662Z,9.25
2022-09-20T06:39:47.181Z,9.32
2022-09-20T06:44:50.111Z,9.31
2022-09-20T06:49:53.361Z,9.21
2022-09-20T06:54:56.972Z,9.13
2022-09-20T06:59:59.731Z,9.11
2022-09-20T07:05:04.816Z,9.12
2022-09-20T07:10:08.045Z,9.06
2022-09-20T07:15:10.921Z,9.13
2022-09-20T07:20:14.542Z,9.44
2022-09-20T07:25:20.867Z,9.80
2022-09-20T07:30:24.214Z,10.15
2022-09-20T07:35:26.933Z,10.52
2022-09-20T07:40:29.831Z,10.82
2022-09-20T07:45:35.207Z,11.05
2022-09-20T07:50:37.928Z,11.47
2022-09-20T07:55:40.557Z,11.89
2022-09-20T08:00:43.194Z,12.15
2022-09-20T08:05:45.850Z,12.17
2022-09-20T08:10:48.569Z,12.11
2022-09-20T08:15:51.337Z,12.15
2022-09-20T08:20:55.535Z,12.23
2022-09-20T08:25:58.298Z,12.47
2022-09-20T08:31:11.212Z,12.78
2022-09-20T08:36:22.971Z,13.12
2022-09-20T08:41:43.885Z,13.49
2022-09-20T08:46:50.861Z,13.59
2022-09-20T08:51:54.828Z,13.76
2022-09-20T08:56:58.747Z,13.85
2022-09-20T09:02:01.558Z,13.86
2022-09-20T09:07:04.862Z,13.79
2022-09-20T09:12:18.202Z,13.67
2022-09-20T09:17:29.203Z,13.71
2022-09-20T09:22:41.398Z,13.91
2022-09-20T09:27:53.434Z,14.12
2022-09-20T09:33:15.549Z,14.04
2022-09-20T09:38:24.187Z,14.40
2022-09-20T09:43:32.464Z,14.46
2022-09-20T09:48:38.506Z,14.54
2022-09-20T09:53:44.442Z,14.50
2022-09-20T09:59:12.619Z,14.86
2022-09-20T10:04:33.221Z,15.00
2022-09-20T10:10:12.503Z,14.88
2022-09-20T10:15:39.933Z,14.83
2022-09-20T10:21:19.817Z,15.28
2022-09-20T10:26:36.934Z,15.51
2022-09-20T10:31:57.894Z,15.75
2022-09-20T10:37:02.133Z,15.55
2022-09-20T10:42:27.625Z,15.14
2022-09-20T10:48:12.436Z,14.99
2022-09-20T10:53:21.205Z,14.87
2022-09-20T10:58:46.026Z,14.68
2022-09-20T11:03:51.656Z,14.50
2022-09-20T11:09:04.579Z,14.41
2022-09-20T11:14:37.998Z,14.55
2022-09-20T11:19:47.727Z,14.76
2022-09-20T11:25:10.761Z,15.08
2022-09-20T11:30:21.988Z,14.92
2022-09-20T11:35:35.614Z,15.15
2022-09-20T11:40:49.496Z,15.44
2022-09-20T11:45:57.435Z,15.62
2022-09-20T11:51:33.070Z,15.68
2022-09-20T11:56:35.824Z,15.71
2022-09-20T12:01:44.266Z,15.69
2022-09-20T12:06:48.019Z,15.78
2022-09-20T12:11:52.582Z,15.93
2022-09-20T12:16:56.518Z,16.07
2022-09-20T12:21:59.580Z,16.22
2022-09-20T12:27:44.103Z,16.54
2022-09-20T12:32:58.314Z,16.63
2022-09-20T12:38:40.321Z,16.20
2022-09-20T12:43:55.236Z,16.03
2022-09-20T12:49:46.432Z,15.97
2022-09-20T12:54:56.315Z,16.01
2022-09-20T13:00:15.486Z,16.14
2022-09-20T13:05:38.589Z,16.29
2022-09-20T13:11:05.211Z,16.47
2022-09-20T13:16:23.757Z,16.83
2022-09-20T13:21:28.789Z,17.09
2022-09-20T13:26:40.758Z,17.02
2022-09-20T13:31:44.160Z,17.11
2022-09-20T13:36:56.207Z,16.98
2022-09-20T13:42:02.590Z,16.43
2022-09-20T13:47:43.154Z,15.93
2022-09-20T13:53:39.399Z,15.51
2022-09-20T13:58:39.775Z,15.26
2022-09-20T14:03:44.544Z,15.08
2022-09-20T14:08:51.624Z,15.12
2022-09-20T14:13:58.350Z,15.06
2022-09-20T14:19:03.383Z,14.94
2022-09-20T14:24:37.245Z,14.96
2022-09-20T14:29:43.412Z,15.11
2022-09-20T14:35:00.964Z,15.49
2022-09-20T14:40:16.643Z,16.12
2022-09-20T14:45:24.624Z,16.48
2022-09-20T14:50:31.870Z,16.37
2022-09-20T14:55:37.586Z,16.35
2022-09-20T15:01:03.257Z,16.46
2022-09-20T15:06:10.406Z,16.22
2022-09-20T15:11:17.756Z,15.63
2022-09-20T15:16:20.542Z,15.68
2022-09-20T15:21:24.302Z,15.87
2022-09-20T15:26:27.424Z,16.11
2022-09-20T15:31:29.997Z,16.37
2022-09-20T15:36:32.720Z,16.21
2022-09-20T15:41:36.039Z,15.28
2022-09-20T15:46:38.919Z,14.17
2022-09-20T15:51:41.493Z,13.34
2022-09-20T15:56:44.169Z,12.71
2022-09-20T16:01:48.286Z,12.30
2022-09-20T16:06:51.450Z,12.04
2022-09-20T16:11:58.855Z,11.85
2022-09-20T16:17:01.608Z,11.70
2022-09-20T16:22:04.955Z,11.53
2022-09-20T16:27:14.710Z,11.38
2022-09-20T16:32:17.978Z,11.26
2022-09-20T16:37:22.606Z,11.13
2022-09-20T16:42:25.326Z,11.00
2022-09-20T16:47:27.975Z,10.88
2022-09-20T16:52:30.670Z,10.77
2022-09-20T16:57:33.375Z,10.63
2022-09-20T17:02:36.373Z,10.47
2022-09-20T17:07:39.075Z,10.33
2022-09-20T17:12:42.515Z,10.25
2022-09-20T17:17:45.805Z,10.17
2022-09-20T17:22:49.130Z,10.05
2022-09-20T17:27:51.813Z,9.93
2022-09-20T17:32:55.126Z,9.87
2022-09-20T17:37:57.800Z,9.85
2022-09-20T17:43:00.468Z,9.83
2022-09-20T17:48:04.142Z,9.85
2022-09-20T17:53:07.244Z,9.84
2022-09-20T17:58:09.755Z,9.77
2022-09-20T18:03:12.445Z,9.67
2022-09-20T18:08:16.015Z,9.56
2022-09-20T18:13:18.763Z,9.42
2022-09-20T18:18:21.996Z,9.33
2022-09-20T18:23:24.687Z,9.29
2022-09-20T18:28:27.476Z,9.35
2022-09-20T18:33:31.551Z,9.41
2022-09-20T18:38:34.242Z,9.41
2022-09-20T18:43:37.024Z,9.39
2022-09-20T18:48:40.317Z,9.39
2022-09-20T18:53:42.986Z,9.35
2022-09-20T18:58:46.026Z,9.26
2022-09-20T19:04:07.463Z,9.22
2022-09-20T19:09:43.470Z,9.16
2022-09-20T19:15:10.924Z,9.15
2022-09-20T19:20:25.561Z,9.12
2022-09-20T19:25:40.826Z,9.10
2022-09-20T19:30:45.641Z,9.09
2022-09-20T19:35:50.390Z,9.17
2022-09-20T19:41:05.170Z,9.23
2022-09-20T19:46:31.624Z,9.27
2022-09-20T19:51:37.800Z,9.37
2022-09-20T19:56:53.154Z,9.41
2022-09-20T20:01:56.597Z,9.40
2022-09-20T20:07:06.177Z,9.34
2022-09-20T20:12:20.577Z,9.26
2022-09-20T20:17:32.573Z,9.23
2022-09-20T20:22:47.141Z,9.22
2022-09-20T20:27:49.782Z,9.21
2022-09-20T20:32:58.195Z,9.23
2022-09-20T20:38:00.857Z,9.25
2022-09-20T20:43:06.192Z,9.23
2022-09-20T20:48:08.828Z,9.21
2022-09-20T20:53:11.473Z,9.17
2022-09-20T20:58:14.090Z,9.11
2022-09-20T21:03:16.720Z,9.01
2022-09-20T21:08:19.423Z,8.99
2022-09-20T21:13:22.426Z,9.03
2022-09-20T21:18:25.111Z,9.08
2022-09-20T21:23:27.868Z,9.13
2022-09-20T21:28:30.931Z,9.15
2022-09-20T21:33:35.571Z,9.12
2022-09-20T21:38:39.766Z,9.06
2022-09-20T21:43:44.878Z,9.01
2022-09-20T21:48:49.097Z,8.95
2022-09-20T21:53:54.317Z,8.88
2022-09-20T21:58:58.198Z,8.85
2022-09-20T22:04:05.132Z,8.79
2022-09-20T22:09:13.881Z,8.73
2022-09-20T22:14:19.498Z,8.67
2022-09-20T22:19:22.386Z,8.59
2022-09-20T22:24:25.202Z,8.54
2022-09-20T22:29:27.888Z,8.52
2022-09-20T22:34:30.540Z,8.57
2022-09-20T22:39:33.287Z,8.58
2022-09-20T22:44:36.089Z,8.56
2022-09-20T22:49:38.804Z,8.57
2022-09-20T22:54:46.617Z,8.55
2022-09-20T22:59:49.253Z,8.55
2022-09-20T23:04:51.923Z,8.54
2022-09-20T23:09:54.554Z,8.54
2022-09-20T23:14:57.197Z,8.49
2022-09-20T23:19:59.845Z,8.44
2022-09-20T23:25:02.599Z,8.40
2022-09-20T23:30:06.215Z,8.35
2022-09-20T23:35:09.118Z,8.32
2022-09-20T23:40:11.847Z,8.32
2022-09-20T23:45:15.026Z,8.30
2022-09-20T23:50:17.673Z,8.27
2022-09-20T23:55:20.426Z,8.21
